createdAt,value
2019-05-20T19:46:25.472Z,13.71
2019-05-20T19:48:53.847Z,13.69
2019-05-20T19:51:22.357Z,13.74
2019-05-20T19:53:50.700Z,13.86
2019-05-20T19:56:19.058Z,13.97
2019-05-20T19:58:47.364Z,14.15
2019-05-20T20:01:15.871Z,14.33
2019-05-20T20:03:44.264Z,14.47
2019-05-20T20:06:12.574Z,14.59
2019-05-20T20:08:41.224Z,14.73
2019-05-20T20:11:09.576Z,14.85
2019-05-20T20:13:37.898Z,14.95
2019-05-20T20:16:06.500Z,14.98
2019-05-20T20:18:34.862Z,14.97
2019-05-20T20:21:03.296Z,15.06
2019-05-20T20:23:31.764Z,15.13
2019-05-20T20:26:00.426Z,15.12
2019-05-20T20:28:28.899Z,15.14
2019-05-20T20:30:57.271Z,15.07
2019-05-20T20:33:25.754Z,15.14
2019-05-20T20:35:54.227Z,15.17
2019-05-20T20:38:22.527Z,15.12
2019-05-20T20:40:51.010Z,15.13
2019-05-20T20:43:19.611Z,15.11
2019-05-20T20:45:48.003Z,15.15
2019-05-20T20:48:16.424Z,15.06
2019-05-20T20:50:44.936Z,15.03
2019-05-20T20:53:13.258Z,15.01
2019-05-20T20:55:41.589Z,15.01
2019-05-20T20:58:09.988Z,14.88
2019-05-20T21:00:38.387Z,14.86
2019-05-20T21:03:06.900Z,14.82
2019-05-20T21:05:35.436Z,14.74
2019-05-20T21:08:03.864Z,14.70
2019-05-20T21:10:32.375Z,14.68
2019-05-20T21:13:00.740Z,14.62
2019-05-20T21:15:29.067Z,14.63
2019-05-20T21:17:57.469Z,14.62
2019-05-20T21:20:25.914Z,14.55
2019-05-20T21:22:54.528Z,14.53
2019-05-20T21:25:22.941Z,14.54
2019-05-20T21:27:51.293Z,14.56
2019-05-20T21:30:19.906Z,14.55
2019-05-20T21:32:48.310Z,14.55
2019-05-20T21:35:16.605Z,14.48
2019-05-20T21:37:45.043Z,14.45
2019-05-20T21:40:13.479Z,14.49
2019-05-20T21:42:41.780Z,14.48
2019-05-20T21:45:10.193Z,14.43
2019-05-20T21:47:38.579Z,14.44
2019-05-20T21:50:07.461Z,14.43
2019-05-20T21:52:35.777Z,14.45
2019-05-20T21:55:05.568Z,14.49
2019-05-20T21:57:34.164Z,14.44
2019-05-20T22:00:03.404Z,14.51
2019-05-20T22:02:31.776Z,14.46
2019-05-20T22:05:00.203Z,14.49
2019-05-20T22:07:28.847Z,14.45
2019-05-20T22:09:57.250Z,14.43
2019-05-20T22:12:25.663Z,14.47
2019-05-20T22:14:55.553Z,14.47
2019-05-20T22:17:24.151Z,14.47
2019-05-20T22:19:52.533Z,14.48
2019-05-20T22:22:41.826Z,14.50
2019-05-20T22:25:10.226Z,14.48
2019-05-20T22:27:38.543Z,14.50
2019-05-20T22:30:08.046Z,14.46
2019-05-20T22:32:36.498Z,14.51
2019-05-20T22:35:06.982Z,14.48
2019-05-20T22:37:35.588Z,14.48
2019-05-20T22:40:06.172Z,14.51
2019-05-20T22:42:34.722Z,14.43
2019-05-20T22:45:03.141Z,14.47
2019-05-20T22:47:31.463Z,14.46
2019-05-20T22:49:59.885Z,14.50
2019-05-20T22:52:28.335Z,14.50
2019-05-20T22:54:56.805Z,14.48
2019-05-20T22:57:25.126Z,14.39
2019-05-20T22:59:53.492Z,14.41
2019-05-20T23:02:21.833Z,14.41
2019-05-20T23:04:50.212Z,14.42
2019-05-20T23:07:18.612Z,14.43
2019-05-20T23:09:47.085Z,14.39
2019-05-20T23:12:15.488Z,14.44
2019-05-20T23:14:43.787Z,14.43
2019-05-20T23:17:12.209Z,14.44
2019-05-20T23:19:40.579Z,14.47
2019-05-20T23:22:08.920Z,14.44
2019-05-20T23:24:37.423Z,14.53
2019-05-20T23:27:07.065Z,14.57
2019-05-20T23:29:35.360Z,14.56
2019-05-20T23:32:03.740Z,14.59
2019-05-20T23:34:32.175Z,14.56
2019-05-20T23:37:00.638Z,14.59
2019-05-20T23:39:29.032Z,14.62
2019-05-20T23:41:57.325Z,14.60
2019-05-20T23:44:25.703Z,14.57
2019-05-20T23:46:54.077Z,14.40
2019-05-20T23:49:22.588Z,14.48
2019-05-20T23:51:51.079Z,14.49
2019-05-20T23:54:19.447Z,14.54
2019-05-20T23:56:47.750Z,14.52
2019-05-20T23:59:16.076Z,14.48
